createdAt,value
2023-03-13T00:01:42.459Z,100029.00
2023-03-13T00:04:09.286Z,100043.63
2023-03-13T00:06:38.196Z,100037.59
2023-03-13T00:09:08.169Z,100041.00
2023-03-13T00:11:35.038Z,100036.69
2023-03-13T00:14:03.803Z,100035.88
2023-03-13T00:16:31.460Z,100040.22
2023-03-13T00:18:59.103Z,100039.41
2023-03-13T00:21:28.707Z,100036.00
2023-03-13T00:23:56.305Z,100034.28
2023-03-13T00:26:25.825Z,100036.00
2023-03-13T00:28:53.855Z,100036.03
2023-03-13T00:31:23.687Z,100029.13
2023-03-13T00:33:54.145Z,100019.66
2023-03-13T00:36:27.174Z,100017.94
2023-03-13T00:38:55.091Z,100020.50
2023-03-13T00:41:24.469Z,100017.03
2023-03-13T00:43:52.006Z,100014.38
2023-03-13T00:46:20.854Z,100014.38
2023-03-13T00:48:48.588Z,100016.03
2023-03-13T00:51:16.847Z,100003.84
2023-03-13T00:53:44.125Z,100002.84
2023-03-13T00:56:13.228Z,99997.59
2023-03-13T00:58:41.913Z,100003.63
2023-03-13T01:01:14.782Z,99998.44
2023-03-13T01:03:43.650Z,99998.44
2023-03-13T01:06:12.964Z,99991.56
2023-03-13T01:08:40.264Z,99985.56
2023-03-13T01:11:13.248Z,99983.84
2023-03-13T01:13:40.494Z,99980.34
2023-03-13T01:16:18.718Z,99969.06
2023-03-13T01:18:48.598Z,99969.00
2023-03-13T01:21:16.722Z,99968.91
2023-03-13T01:23:43.371Z,99967.97
2023-03-13T01:26:10.296Z,99967.06
2023-03-13T01:28:37.401Z,99961.00
2023-03-13T01:31:19.286Z,99957.50
2023-03-13T01:33:47.636Z,99954.91
2023-03-13T01:36:15.093Z,99958.34
2023-03-13T01:38:41.761Z,99953.13
2023-03-13T01:41:11.335Z,99953.94
2023-03-13T01:43:38.240Z,99941.78
2023-03-13T01:46:18.908Z,99948.53
2023-03-13T01:49:14.698Z,99938.13
2023-03-13T01:51:46.113Z,99951.81
2023-03-13T01:54:22.735Z,99949.00
2023-03-13T01:57:03.906Z,99943.66
2023-03-13T02:00:08.114Z,99932.44
2023-03-13T02:02:36.856Z,99939.28
2023-03-13T02:05:06.425Z,99929.78
2023-03-13T02:07:47.581Z,99926.31
2023-03-13T02:10:18.008Z,99917.78
2023-03-13T02:12:45.129Z,99922.19
2023-03-13T02:15:13.531Z,99917.09
2023-03-13T02:17:42.145Z,99914.50
2023-03-13T02:20:10.319Z,99900.66
2023-03-13T02:22:42.958Z,99910.94
2023-03-13T02:25:24.497Z,99902.34
2023-03-13T02:28:33.822Z,99904.88
2023-03-13T02:31:01.930Z,99894.50
2023-03-13T02:33:32.897Z,99896.13
2023-03-13T02:36:01.591Z,99893.44
2023-03-13T02:38:31.352Z,99892.56
2023-03-13T02:41:00.855Z,99900.31
2023-03-13T02:43:33.105Z,99895.16
2023-03-13T02:46:12.813Z,99909.78
2023-03-13T02:48:42.817Z,99908.88
2023-03-13T02:51:34.034Z,99907.19
2023-03-13T02:54:06.559Z,99903.72
2023-03-13T02:56:36.433Z,99896.78
2023-03-13T02:59:03.217Z,99897.56
2023-03-13T03:01:29.817Z,99895.78
2023-03-13T03:03:56.480Z,99891.44
2023-03-13T03:06:23.131Z,99887.13
2023-03-13T03:08:49.898Z,99892.34
2023-03-13T03:11:16.587Z,99889.81
2023-03-13T03:13:43.350Z,99883.84
2023-03-13T03:16:13.538Z,99880.34
2023-03-13T03:18:40.199Z,99888.03
2023-03-13T03:21:07.128Z,99871.53
2023-03-13T03:23:35.092Z,99880.00
2023-03-13T03:26:03.025Z,99874.75
2023-03-13T03:28:29.785Z,99876.44
2023-03-13T03:30:56.626Z,99878.16
2023-03-13T03:33:24.447Z,99875.66
2023-03-13T03:35:51.205Z,99880.00
2023-03-13T03:38:17.894Z,99868.81
2023-03-13T03:40:44.497Z,99869.72
2023-03-13T03:43:11.240Z,99867.09
2023-03-13T03:45:37.916Z,99863.66
2023-03-13T03:48:04.904Z,99868.72
2023-03-13T03:50:31.578Z,99855.78
2023-03-13T03:52:58.183Z,99866.06
2023-03-13T03:55:24.878Z,99868.63
2023-03-13T03:57:51.636Z,99863.47
2023-03-13T04:00:19.542Z,99857.47
2023-03-13T04:02:46.136Z,99865.16
2023-03-13T04:05:12.808Z,99856.53
2023-03-13T04:07:39.688Z,99846.22
2023-03-13T04:10:06.882Z,99850.53
2023-03-13T04:12:33.548Z,99847.97
2023-03-13T04:15:00.172Z,99838.59
2023-03-13T04:17:27.100Z,99823.06
2023-03-13T04:19:53.740Z,99818.69
2023-03-13T04:22:20.597Z,99817.78
2023-03-13T04:24:47.281Z,99811.69
2023-03-13T04:27:13.902Z,99814.22
2023-03-13T04:29:40.588Z,99802.22
2023-03-13T04:32:07.604Z,99788.41
2023-03-13T04:34:34.291Z,99784.97
2023-03-13T04:37:00.976Z,99772.91
2023-03-13T04:39:27.601Z,99770.34
2023-03-13T04:41:55.532Z,99766.06
2023-03-13T04:44:23.190Z,99771.28
2023-03-13T04:46:49.877Z,99767.88
2023-03-13T04:49:16.821Z,99771.47
2023-03-13T04:51:44.451Z,99762.13
2023-03-13T04:54:12.283Z,99757.91
2023-03-13T04:56:43.693Z,99745.94
2023-03-13T04:59:15.154Z,99749.53
2023-03-13T05:01:42.895Z,99742.78
2023-03-13T05:04:10.696Z,99725.63
2023-03-13T05:06:37.496Z,99721.38
2023-03-13T05:09:04.807Z,99725.72
2023-03-13T05:11:31.547Z,99738.69
2023-03-13T05:13:58.194Z,99733.59
2023-03-13T05:16:24.897Z,99720.75
2023-03-13T05:18:51.523Z,99733.78
2023-03-13T05:21:18.216Z,99714.88
2023-03-13T05:23:44.829Z,99706.31
2023-03-13T05:26:11.456Z,99708.97
2023-03-13T05:28:38.059Z,99704.72
2023-03-13T05:31:04.880Z,99700.44
2023-03-13T05:33:31.576Z,99689.28
2023-03-13T05:35:58.235Z,99688.47
2023-03-13T05:38:25.049Z,99683.34
2023-03-13T05:40:51.651Z,99674.75
2023-03-13T05:43:18.272Z,99667.00
2023-03-13T05:45:44.883Z,99667.03
2023-03-13T05:48:11.504Z,99669.66
2023-03-13T05:50:38.208Z,99667.97
2023-03-13T05:53:04.840Z,99662.84
2023-03-13T05:55:31.472Z,99659.47
2023-03-13T05:57:58.148Z,99658.66
2023-03-13T06:00:24.909Z,99650.06
2023-03-13T06:02:51.541Z,99653.56
2023-03-13T06:05:18.193Z,99651.03
2023-03-13T06:07:44.866Z,99640.72
2023-03-13T06:10:11.932Z,99637.31
2023-03-13T06:12:38.732Z,99639.09
2023-03-13T06:15:07.322Z,99634.81
2023-03-13T06:17:34.003Z,99618.50
2023-03-13T06:20:00.723Z,99627.16
2023-03-13T06:22:27.551Z,99618.56
2023-03-13T06:24:54.177Z,99616.03
2023-03-13T06:27:20.939Z,99610.88
2023-03-13T06:29:47.664Z,99610.91
2023-03-13T06:32:14.384Z,99597.16
2023-03-13T06:34:41.049Z,99593.72
2023-03-13T06:37:07.707Z,99593.72
2023-03-13T06:39:34.422Z,99591.16
2023-03-13T06:42:01.063Z,99591.19
2023-03-13T06:44:27.704Z,99577.38
2023-03-13T06:46:54.374Z,99567.03
2023-03-13T06:49:21.134Z,99569.63
2023-03-13T06:51:47.798Z,99551.50
2023-03-13T06:54:14.413Z,99548.03
2023-03-13T06:56:41.082Z,99536.72
2023-03-13T06:59:07.704Z,99532.41
2023-03-13T07:01:34.336Z,99507.28
2023-03-13T07:04:01.005Z,99507.22
2023-03-13T07:06:27.655Z,99521.03
2023-03-13T07:08:54.264Z,99507.97
2023-03-13T07:11:21.025Z,99516.59
2023-03-13T07:13:47.633Z,99509.56
2023-03-13T07:16:14.493Z,99500.81
2023-03-13T07:18:47.444Z,99483.41
2023-03-13T07:21:14.693Z,99483.25
2023-03-13T07:23:41.700Z,99484.00
2023-03-13T07:26:12.704Z,99469.16
2023-03-13T07:28:39.887Z,99450.84
2023-03-13T07:31:12.312Z,99455.06
2023-03-13T07:33:39.348Z,99448.91
2023-03-13T07:36:06.835Z,99451.41
2023-03-13T07:38:33.842Z,99449.56
2023-03-13T07:41:00.524Z,99451.19
2023-03-13T07:43:27.282Z,99445.88
2023-03-13T07:45:55.370Z,99436.22
2023-03-13T07:48:24.120Z,99418.72
2023-03-13T07:50:51.167Z,99414.25
2023-03-13T07:53:21.400Z,99403.75
2023-03-13T07:55:56.566Z,99395.81
2023-03-13T07:58:24.552Z,99386.97
2023-03-13T08:00:51.559Z,99367.78
2023-03-13T08:03:18.515Z,99357.25
2023-03-13T08:05:45.347Z,99346.72
2023-03-13T08:08:12.166Z,99349.25
2023-03-13T08:10:38.865Z,99352.66
2023-03-13T08:13:05.481Z,99350.88
2023-03-13T08:15:32.159Z,99349.09
2023-03-13T08:17:58.833Z,99338.63
2023-03-13T08:20:25.477Z,99329.94
2023-03-13T08:22:52.118Z,99336.94
2023-03-13T08:25:18.771Z,99332.66
2023-03-13T08:27:45.426Z,99337.00
2023-03-13T08:30:12.716Z,99307.47
2023-03-13T08:32:39.359Z,99315.28
2023-03-13T08:35:06.397Z,99297.94
2023-03-13T08:37:33.019Z,99301.44
2023-03-13T08:39:59.627Z,99295.38
2023-03-13T08:42:26.258Z,99292.81
2023-03-13T08:44:52.856Z,99281.50
2023-03-13T08:47:19.453Z,99271.91
2023-03-13T08:49:46.236Z,99274.53
2023-03-13T08:52:12.932Z,99265.81
2023-03-13T08:54:39.540Z,99264.88
2023-03-13T08:57:06.190Z,99257.03
2023-03-13T08:59:32.807Z,99253.50
2023-03-13T09:01:59.633Z,99220.47
2023-03-13T09:04:26.246Z,99224.75
2023-03-13T09:06:53.199Z,99209.06
2023-03-13T09:09:19.867Z,99195.97
2023-03-13T09:11:46.519Z,99196.78
2023-03-13T09:14:13.111Z,99175.84
2023-03-13T09:16:39.768Z,99173.22
2023-03-13T09:19:06.662Z,99159.22
2023-03-13T09:21:35.120Z,99157.41
2023-03-13T09:24:02.332Z,99154.78
2023-03-13T09:26:29.575Z,99133.88
2023-03-13T09:28:56.906Z,99129.44
2023-03-13T09:31:27.221Z,99129.38
2023-03-13T09:33:54.880Z,99115.44
2023-03-13T09:36:23.863Z,99113.66
2023-03-13T09:38:52.389Z,99098.81
2023-03-13T09:41:48.335Z,99096.25
2023-03-13T09:44:23.261Z,99087.50
2023-03-13T09:47:04.478Z,99072.72
2023-03-13T09:49:51.657Z,99068.31
2023-03-13T09:52:23.129Z,99057.81
2023-03-13T09:54:54.913Z,99043.88
2023-03-13T09:57:32.657Z,99042.97
2023-03-13T10:00:12.485Z,99037.66
2023-03-13T10:02:40.706Z,99023.72
2023-03-13T10:05:21.344Z,99014.94
2023-03-13T10:07:48.510Z,99013.13
2023-03-13T10:10:19.520Z,99003.44
2023-03-13T10:12:48.485Z,98998.97
2023-03-13T10:15:33.648Z,99008.53
2023-03-13T10:18:13.324Z,98971.09
2023-03-13T10:20:41.153Z,98973.72
2023-03-13T10:23:25.411Z,98959.81
2023-03-13T10:25:52.027Z,98957.19
2023-03-13T10:28:22.912Z,98952.03
2023-03-13T10:30:54.371Z,98933.78
2023-03-13T10:33:26.720Z,98939.88
2023-03-13T10:36:04.121Z,98931.22
2023-03-13T10:38:54.041Z,98922.53
2023-03-13T10:41:30.967Z,98907.75
2023-03-13T10:44:05.106Z,98900.75
2023-03-13T10:46:34.164Z,98894.59
2023-03-13T10:49:04.670Z,98898.00
2023-03-13T10:51:39.040Z,98887.47
2023-03-13T10:54:29.843Z,98857.81
2023-03-13T10:57:17.816Z,98845.53
2023-03-13T10:59:47.389Z,98845.53
2023-03-13T11:02:36.162Z,98829.78
2023-03-13T11:05:26.158Z,98822.78
2023-03-13T11:07:53.632Z,98805.38
2023-03-13T11:10:22.786Z,98793.91
2023-03-13T11:12:51.845Z,98789.56
2023-03-13T11:15:47.009Z,98778.25
2023-03-13T11:18:33.087Z,98770.41
2023-03-13T11:21:17.465Z,98758.19
2023-03-13T11:23:50.068Z,98769.41
2023-03-13T11:26:32.355Z,98762.41
2023-03-13T11:29:26.162Z,98748.53
2023-03-13T11:32:11.181Z,98738.09
2023-03-13T11:34:56.280Z,98733.72
2023-03-13T11:37:24.523Z,98724.09
2023-03-13T11:40:10.622Z,98707.50
2023-03-13T11:42:45.256Z,98701.34
2023-03-13T11:45:33.565Z,98691.72
2023-03-13T11:48:20.137Z,98689.91
2023-03-13T11:50:58.877Z,98668.16
2023-03-13T11:53:47.919Z,98664.69
2023-03-13T11:56:23.424Z,98645.50
2023-03-13T11:59:03.225Z,98652.38
2023-03-13T12:01:56.075Z,98644.47
2023-03-13T12:04:28.314Z,98622.81
2023-03-13T12:07:04.598Z,98613.13
2023-03-13T12:09:31.495Z,98617.41
2023-03-13T12:12:11.084Z,98607.78
2023-03-13T12:14:52.867Z,98594.66
2023-03-13T12:17:25.415Z,98584.28
2023-03-13T12:19:58.785Z,98572.06
2023-03-13T12:22:52.108Z,98559.97
2023-03-13T12:25:33.072Z,98558.16
2023-03-13T12:28:18.751Z,98532.81
2023-03-13T12:30:52.802Z,98524.09
2023-03-13T12:33:26.547Z,98521.50
2023-03-13T12:36:38.106Z,98513.66
2023-03-13T12:39:24.605Z,98498.81
2023-03-13T12:42:22.369Z,98493.59
2023-03-13T12:44:49.531Z,98475.34
2023-03-13T12:47:49.595Z,98475.31
2023-03-13T12:50:47.116Z,98458.81
2023-03-13T12:53:34.245Z,98444.00
2023-03-13T12:56:22.520Z,98436.13
2023-03-13T12:58:55.895Z,98417.78
2023-03-13T13:01:32.464Z,98409.03
2023-03-13T13:04:07.827Z,98397.69
2023-03-13T13:07:23.235Z,98377.66
2023-03-13T13:10:04.149Z,98361.97
2023-03-13T13:12:31.325Z,98356.75
2023-03-13T13:15:04.093Z,98347.22
2023-03-13T13:17:40.453Z,98321.09
2023-03-13T13:20:39.649Z,98310.56
2023-03-13T13:23:23.099Z,98293.13
2023-03-13T13:25:50.187Z,98289.75
2023-03-13T13:28:18.364Z,98291.44
2023-03-13T13:30:45.265Z,98273.09
2023-03-13T13:33:21.916Z,98260.03
2023-03-13T13:36:08.488Z,98253.84
2023-03-13T13:38:39.772Z,98250.25
2023-03-13T13:41:26.149Z,98231.91
2023-03-13T13:44:23.446Z,98217.03
2023-03-13T13:46:50.630Z,98207.34
2023-03-13T13:49:19.884Z,98179.50
2023-03-13T13:52:01.567Z,98181.22
2023-03-13T13:54:55.823Z,98168.97
2023-03-13T13:57:26.088Z,98156.75
2023-03-13T14:00:00.945Z,98153.25
2023-03-13T14:02:45.988Z,98134.06
2023-03-13T14:05:24.677Z,98121.09
2023-03-13T14:07:54.094Z,98122.00
2023-03-13T14:10:48.975Z,98108.06
2023-03-13T14:13:21.153Z,98098.53
2023-03-13T14:15:50.033Z,98081.19
2023-03-13T14:18:25.532Z,98082.09
2023-03-13T14:21:00.181Z,98071.66
2023-03-13T14:23:42.640Z,98048.16
2023-03-13T14:26:13.760Z,98044.59
2023-03-13T14:28:43.485Z,98032.47
2023-03-13T14:31:12.214Z,98022.91
2023-03-13T14:33:39.226Z,98003.75
2023-03-13T14:36:06.180Z,97994.19
2023-03-13T14:38:33.611Z,97991.56
2023-03-13T14:41:00.335Z,97987.19
2023-03-13T14:43:41.290Z,97975.75
2023-03-13T14:46:30.555Z,97956.53
2023-03-13T14:48:57.708Z,97943.44
2023-03-13T14:51:28.209Z,97934.66
2023-03-13T14:54:02.796Z,97920.78
2023-03-13T14:56:32.459Z,97901.56
2023-03-13T14:59:18.457Z,97898.94
2023-03-13T15:01:46.158Z,97884.13
2023-03-13T15:04:12.869Z,97878.00
2023-03-13T15:06:39.610Z,97865.78
2023-03-13T15:09:22.561Z,97845.72
2023-03-13T15:12:00.059Z,97838.66
2023-03-13T15:14:40.953Z,97819.44
2023-03-13T15:17:20.818Z,97813.25
2023-03-13T15:19:58.321Z,97800.94
2023-03-13T15:22:33.197Z,97793.88
2023-03-13T15:25:08.114Z,97779.03
2023-03-13T15:27:35.493Z,97759.81
2023-03-13T15:30:02.419Z,97750.06
2023-03-13T15:32:33.385Z,97743.84
2023-03-13T15:35:02.008Z,97732.31
2023-03-13T15:37:30.268Z,97714.72
2023-03-13T15:39:57.796Z,97709.34
2023-03-13T15:42:25.595Z,97690.91
2023-03-13T15:44:52.252Z,97695.06
2023-03-13T15:47:21.283Z,97676.59
2023-03-13T15:49:48.238Z,97665.84
2023-03-13T15:52:22.471Z,97651.69
2023-03-13T15:54:50.473Z,97654.00
2023-03-13T15:57:24.339Z,97645.91
2023-03-13T15:59:52.425Z,97632.59
2023-03-13T16:02:21.900Z,97619.28
2023-03-13T16:04:49.092Z,97617.34
2023-03-13T16:07:19.813Z,97595.16
2023-03-13T16:09:47.269Z,97583.69
2023-03-13T16:12:13.970Z,97565.13
2023-03-13T16:14:41.038Z,97558.81
2023-03-13T16:17:28.263Z,97553.34
2023-03-13T16:19:55.705Z,97540.00
2023-03-13T16:22:22.344Z,97533.75
2023-03-13T16:24:48.949Z,97524.91
2023-03-13T16:27:18.221Z,97517.72
2023-03-13T16:29:46.112Z,97508.09
2023-03-13T16:32:16.374Z,97497.44
2023-03-13T16:34:43.452Z,97477.19
2023-03-13T16:37:14.798Z,97477.84
2023-03-13T16:39:42.098Z,97461.97
2023-03-13T16:42:08.804Z,97468.81
2023-03-13T16:44:35.451Z,97459.91
2023-03-13T16:47:06.506Z,97436.19
2023-03-13T16:49:33.358Z,97441.25
2023-03-13T16:51:59.958Z,97438.47
2023-03-13T16:54:26.612Z,97427.03
2023-03-13T16:56:53.383Z,97422.56
2023-03-13T16:59:20.021Z,97420.72
2023-03-13T17:01:49.625Z,97425.97
2023-03-13T17:04:16.228Z,97416.22
2023-03-13T17:06:44.782Z,97410.03
2023-03-13T17:09:17.296Z,97397.72
2023-03-13T17:11:44.351Z,97391.53
2023-03-13T17:14:11.416Z,97381.81
2023-03-13T17:16:47.486Z,97380.16
2023-03-13T17:19:15.328Z,97381.81
2023-03-13T17:21:42.347Z,97384.34
2023-03-13T17:24:09.133Z,97383.31
2023-03-13T17:26:38.297Z,97369.28
2023-03-13T17:29:06.794Z,97351.72
2023-03-13T17:31:37.543Z,97332.44
2023-03-13T17:34:05.288Z,97325.34
2023-03-13T17:36:31.977Z,97321.78
2023-03-13T17:39:00.674Z,97316.34
2023-03-13T17:41:32.759Z,97321.41
2023-03-13T17:43:59.651Z,97313.38
2023-03-13T17:46:34.978Z,97303.53
2023-03-13T17:49:01.784Z,97299.91
2023-03-13T17:51:31.514Z,97296.16
2023-03-13T17:53:59.228Z,97293.22
2023-03-13T17:56:28.372Z,97300.91
2023-03-13T17:58:58.184Z,97303.34
2023-03-13T18:01:30.146Z,97296.22
2023-03-13T18:03:57.413Z,97289.09
2023-03-13T18:06:29.855Z,97285.34
2023-03-13T18:08:59.871Z,97280.75
2023-03-13T18:11:26.919Z,97263.16
2023-03-13T18:13:53.987Z,97264.81
2023-03-13T18:16:38.153Z,97260.22
2023-03-13T18:19:15.332Z,97250.38
2023-03-13T18:21:43.723Z,97249.47
2023-03-13T18:24:11.895Z,97242.44
2023-03-13T18:26:40.227Z,97239.63
2023-03-13T18:29:17.894Z,97229.97
2023-03-13T18:31:45.353Z,97235.97
2023-03-13T18:34:12.663Z,97229.78
2023-03-13T18:36:39.617Z,97220.03
2023-03-13T18:39:06.680Z,97215.53
2023-03-13T18:41:34.374Z,97224.16
2023-03-13T18:44:04.053Z,97217.00
2023-03-13T18:46:33.480Z,97210.84
2023-03-13T18:49:03.764Z,97213.34
2023-03-13T18:51:30.872Z,97212.31
2023-03-13T18:53:57.531Z,97205.28
2023-03-13T18:56:27.714Z,97199.00
2023-03-13T18:58:55.745Z,97209.38
2023-03-13T19:01:24.769Z,97199.53
2023-03-13T19:03:52.367Z,97192.22
2023-03-13T19:06:24.181Z,97196.38
2023-03-13T19:08:54.196Z,97190.09
2023-03-13T19:11:24.104Z,97176.91
2023-03-13T19:13:50.963Z,97177.75
2023-03-13T19:16:27.278Z,97177.53
2023-03-13T19:18:54.199Z,97178.19
2023-03-13T19:21:26.447Z,97178.06
2023-03-13T19:23:53.734Z,97172.59
2023-03-13T19:26:35.338Z,97166.19
2023-03-13T19:29:02.165Z,97167.66
2023-03-13T19:31:28.878Z,97170.00
2023-03-13T19:33:55.566Z,97164.63
2023-03-13T19:36:24.293Z,97160.84
2023-03-13T19:38:51.660Z,97161.59
2023-03-13T19:41:18.321Z,97160.44
2023-03-13T19:43:47.820Z,97160.09
2023-03-13T19:46:17.100Z,97162.31
2023-03-13T19:48:43.757Z,97168.19
2023-03-13T19:51:10.493Z,97165.16
2023-03-13T19:53:37.187Z,97157.81
2023-03-13T19:56:21.462Z,97154.00
2023-03-13T19:58:50.589Z,97150.22
2023-03-13T20:01:18.130Z,97148.34
2023-03-13T20:03:45.949Z,97148.13
2023-03-13T20:06:20.788Z,97146.22
2023-03-13T20:08:48.470Z,97148.63
2023-03-13T20:11:16.259Z,97128.09
2023-03-13T20:13:42.959Z,97143.66
2023-03-13T20:16:11.602Z,97143.44
2023-03-13T20:18:40.091Z,97137.88
2023-03-13T20:21:07.154Z,97134.16
2023-03-13T20:23:33.777Z,97128.00
2023-03-13T20:26:08.413Z,97125.16
2023-03-13T20:28:38.938Z,97115.25
2023-03-13T20:31:06.786Z,97123.63
2023-03-13T20:33:34.812Z,97119.94
2023-03-13T20:36:10.752Z,97118.75
2023-03-13T20:38:38.379Z,97120.22
2023-03-13T20:41:05.708Z,97121.91
2023-03-13T20:43:33.251Z,97119.16
2023-03-13T20:45:59.900Z,97119.78
2023-03-13T20:48:27.631Z,97105.69
2023-03-13T20:50:56.238Z,97102.00
2023-03-13T20:53:24.396Z,97105.22
2023-03-13T20:55:52.095Z,97103.34
2023-03-13T20:58:21.990Z,97088.19
2023-03-13T21:00:49.065Z,97096.78
2023-03-13T21:03:17.365Z,97087.00
2023-03-13T21:05:44.656Z,97087.72
2023-03-13T21:08:11.801Z,97090.34
2023-03-13T21:10:40.279Z,97084.97
2023-03-13T21:13:08.208Z,97074.31
2023-03-13T21:15:35.554Z,97085.72
2023-03-13T21:18:02.898Z,97076.72
2023-03-13T21:20:30.159Z,97078.53
2023-03-13T21:22:57.369Z,97074.84
2023-03-13T21:25:24.546Z,97070.31
2023-03-13T21:27:51.375Z,97072.81
2023-03-13T21:30:21.291Z,97062.31
2023-03-13T21:32:48.612Z,97059.66
2023-03-13T21:35:16.853Z,97062.44
2023-03-13T21:37:44.132Z,97076.41
2023-03-13T21:40:12.355Z,97065.16
2023-03-13T21:42:39.288Z,97063.50
2023-03-13T21:45:07.750Z,97065.16
2023-03-13T21:47:37.429Z,97055.59
2023-03-13T21:50:10.094Z,97061.56
2023-03-13T21:52:40.822Z,97047.59
2023-03-13T21:55:11.637Z,97045.91
2023-03-13T21:57:38.390Z,97045.09
2023-03-13T22:00:08.257Z,97050.22
2023-03-13T22:02:36.185Z,97040.78
2023-03-13T22:05:04.316Z,97041.72
2023-03-13T22:07:31.087Z,97037.44
2023-03-13T22:09:58.525Z,97035.75
2023-03-13T22:12:25.800Z,97026.31
2023-03-13T22:14:53.235Z,97037.78
2023-03-13T22:17:20.593Z,97031.66
2023-03-13T22:19:47.621Z,97030.97
2023-03-13T22:22:14.894Z,97026.53
2023-03-13T22:24:42.180Z,97030.00
2023-03-13T22:27:12.842Z,97022.13
2023-03-13T22:29:39.569Z,97030.72
2023-03-13T22:32:06.218Z,97021.88
2023-03-13T22:34:33.254Z,97010.41
2023-03-13T22:36:59.905Z,97015.34
2023-03-13T22:39:26.533Z,97014.38
2023-03-13T22:41:53.135Z,97015.81
2023-03-13T22:44:19.802Z,97012.13
2023-03-13T22:46:46.418Z,97000.75
2023-03-13T22:49:13.041Z,97002.44
2023-03-13T22:51:39.684Z,97006.84
2023-03-13T22:54:06.296Z,97002.44
2023-03-13T22:56:33.025Z,96998.97
2023-03-13T22:58:59.849Z,96996.34
2023-03-13T23:01:26.711Z,97003.41
2023-03-13T23:03:53.394Z,96992.03
2023-03-13T23:06:23.493Z,96992.16
2023-03-13T23:08:50.733Z,96990.72
2023-03-13T23:11:18.445Z,96998.47
2023-03-13T23:13:45.177Z,96996.81
2023-03-13T23:16:12.691Z,96996.56
2023-03-13T23:18:40.010Z,96993.94
2023-03-13T23:21:10.310Z,96994.78
2023-03-13T23:23:37.252Z,96986.78
2023-03-13T23:26:05.698Z,96996.34
2023-03-13T23:28:34.048Z,96987.50
2023-03-13T23:31:07.871Z,96995.28
2023-03-13T23:33:34.483Z,96985.59
2023-03-13T23:36:08.263Z,96983.66
2023-03-13T23:38:35.022Z,96984.41
2023-03-13T23:41:09.055Z,96980.56
2023-03-13T23:43:37.302Z,96981.41
2023-03-13T23:46:04.805Z,96987.38
2023-03-13T23:48:31.969Z,96987.25
2023-03-13T23:50:58.746Z,96982.00
2023-03-13T23:53:25.404Z,96986.31
2023-03-13T23:55:58.594Z,96972.22
2023-03-13T23:58:25.534Z,96975.81
